createdAt,value
2017-09-30T00:01:05.884Z,101036.45
2017-09-30T00:02:12.900Z,101029.89
2017-09-30T00:03:19.125Z,101028.09
2017-09-30T00:04:26.661Z,101024.05
2017-09-30T00:05:32.915Z,101028.00
2017-09-30T00:06:40.372Z,101029.02
2017-09-30T00:07:49.440Z,101029.61
2017-09-30T00:08:58.375Z,101020.20
2017-09-30T00:10:08.205Z,101026.64
2017-09-30T00:11:16.418Z,101026.83
2017-09-30T00:12:24.219Z,101029.36
2017-09-30T00:13:31.373Z,101023.63
2017-09-30T00:14:38.460Z,101024.23
2017-09-30T00:15:46.666Z,101021.01
2017-09-30T00:16:53.573Z,101029.61
2017-09-30T00:18:01.447Z,101025.98
2017-09-30T00:19:10.327Z,101022.03
2017-09-30T00:20:18.393Z,101027.62
2017-09-30T00:21:25.807Z,101026.81
2017-09-30T00:22:35.342Z,101026.24
2017-09-30T00:23:44.677Z,101027.66
2017-09-30T00:24:51.556Z,101024.17
2017-09-30T00:25:59.073Z,101020.37
2017-09-30T00:27:06.811Z,101017.80
2017-09-30T00:28:21.099Z,101022.83
2017-09-30T00:29:32.562Z,101016.63
2017-09-30T00:30:41.855Z,101018.38
2017-09-30T00:31:49.770Z,101009.30
2017-09-30T00:32:57.617Z,101011.81
2017-09-30T00:34:05.187Z,101017.50
2017-09-30T00:35:13.981Z,101015.42
2017-09-30T00:36:21.140Z,101011.00
2017-09-30T00:37:30.041Z,101011.05
2017-09-30T00:38:37.002Z,101008.34
2017-09-30T00:39:44.270Z,101011.30
2017-09-30T00:40:51.475Z,101006.77
2017-09-30T00:42:00.684Z,101008.80
2017-09-30T00:43:09.590Z,101003.56
2017-09-30T00:44:19.004Z,101005.77
2017-09-30T00:45:28.163Z,101008.55
2017-09-30T00:46:35.713Z,101005.36
2017-09-30T00:47:44.840Z,101004.75
2017-09-30T00:48:53.560Z,101004.31
2017-09-30T00:50:01.733Z,101002.73
2017-09-30T00:51:08.953Z,101004.27
2017-09-30T00:52:18.348Z,101004.98
2017-09-30T00:53:27.049Z,101005.48
2017-09-30T00:54:35.464Z,101003.75
2017-09-30T00:55:42.779Z,101002.70
2017-09-30T00:56:49.671Z,100998.02
2017-09-30T00:57:56.717Z,101007.23
2017-09-30T00:59:04.534Z,101000.64
2017-09-30T01:00:12.037Z,100997.66
2017-09-30T01:01:19.074Z,100997.39
2017-09-30T01:02:27.895Z,100997.41
2017-09-30T01:03:36.441Z,101001.23
2017-09-30T01:04:44.516Z,100996.09
2017-09-30T01:05:51.742Z,100998.88
2017-09-30T01:07:00.201Z,100999.02
2017-09-30T01:08:13.063Z,100996.38
2017-09-30T01:09:20.592Z,100993.63
2017-09-30T01:10:29.264Z,100991.80
2017-09-30T01:11:37.404Z,100989.45
2017-09-30T01:12:44.331Z,100987.00
2017-09-30T01:13:53.233Z,100985.30
2017-09-30T01:15:01.564Z,100986.39
2017-09-30T01:16:09.955Z,100987.81
2017-09-30T01:17:18.333Z,100986.65
2017-09-30T01:18:27.580Z,100988.79
2017-09-30T01:19:33.052Z,100989.70
2017-09-30T01:20:39.710Z,100990.49
2017-09-30T01:21:48.450Z,100989.45
2017-09-30T01:22:53.978Z,100989.94
2017-09-30T01:23:59.626Z,100983.91
2017-09-30T01:25:06.508Z,100980.80
2017-09-30T01:26:11.928Z,100981.66
2017-09-30T01:27:19.248Z,100983.83
2017-09-30T01:28:25.575Z,100978.23
2017-09-30T01:29:31.791Z,100976.39
2017-09-30T01:30:37.506Z,100979.30
2017-09-30T01:31:42.969Z,100975.39
2017-09-30T01:32:49.475Z,100974.66
2017-09-30T01:33:55.015Z,100975.70
2017-09-30T01:35:03.586Z,100971.19
2017-09-30T01:36:09.036Z,100977.94
2017-09-30T01:37:17.949Z,100971.31
2017-09-30T01:38:23.576Z,100968.76
2017-09-30T01:39:29.727Z,100968.58
2017-09-30T01:40:37.428Z,100969.75
2017-09-30T01:41:46.848Z,100969.44
2017-09-30T01:42:54.088Z,100966.74
2017-09-30T01:44:02.036Z,100965.13
2017-09-30T01:45:10.311Z,100958.82
2017-09-30T01:46:17.667Z,100964.23
2017-09-30T01:47:25.703Z,100961.83
2017-09-30T01:48:31.872Z,100959.22
2017-09-30T01:49:39.798Z,100958.20
2017-09-30T01:50:48.195Z,100963.42
2017-09-30T01:51:56.064Z,100960.53
2017-09-30T01:53:04.515Z,100960.23
2017-09-30T01:54:12.615Z,100959.78
2017-09-30T01:55:21.331Z,100957.56
2017-09-30T01:56:28.362Z,100962.36
2017-09-30T01:57:36.925Z,100957.43
2017-09-30T01:58:43.098Z,100952.70
2017-09-30T01:59:50.618Z,100953.16
2017-09-30T02:00:58.005Z,100951.55
2017-09-30T02:02:05.318Z,100955.77
2017-09-30T02:03:12.564Z,100951.48
2017-09-30T02:04:19.699Z,100954.75
2017-09-30T02:05:25.958Z,100953.56
2017-09-30T02:06:32.433Z,100952.59
2017-09-30T02:07:39.626Z,100953.94
2017-09-30T02:08:45.867Z,100953.80
2017-09-30T02:09:54.253Z,100948.72
2017-09-30T02:11:01.927Z,100955.15
2017-09-30T02:12:12.913Z,100953.20
2017-09-30T02:13:20.197Z,100951.11
2017-09-30T02:14:26.781Z,100953.91
2017-09-30T02:15:34.584Z,100953.28
2017-09-30T02:16:42.710Z,100948.91
2017-09-30T02:17:51.145Z,100951.64
2017-09-30T02:18:57.871Z,100957.66
2017-09-30T02:20:05.167Z,100951.28
2017-09-30T02:21:14.604Z,100955.61
2017-09-30T02:22:22.972Z,100956.29
2017-09-30T02:23:30.680Z,100952.59
2017-09-30T02:24:41.345Z,100954.34
2017-09-30T02:25:48.683Z,100952.78
2017-09-30T02:26:57.050Z,100953.61
2017-09-30T02:28:08.012Z,100951.17
2017-09-30T02:29:19.104Z,100951.80
2017-09-30T02:30:28.182Z,100953.05
2017-09-30T02:31:36.579Z,100952.65
2017-09-30T02:32:44.677Z,100951.41
2017-09-30T02:33:57.369Z,100951.56
2017-09-30T02:35:05.660Z,100950.22
2017-09-30T02:36:15.277Z,100949.25
2017-09-30T02:37:23.143Z,100947.86
2017-09-30T02:38:32.167Z,100950.30
2017-09-30T02:39:42.498Z,100950.70
2017-09-30T02:40:50.430Z,100952.67
2017-09-30T02:41:59.062Z,100947.90
2017-09-30T02:43:06.664Z,100951.80
2017-09-30T02:44:15.991Z,100945.32
2017-09-30T02:45:23.203Z,100943.60
2017-09-30T02:46:30.763Z,100943.41
2017-09-30T02:47:39.883Z,100944.20
2017-09-30T02:48:47.755Z,100946.17
2017-09-30T02:49:56.043Z,100941.84
2017-09-30T02:51:04.949Z,100944.08
2017-09-30T02:52:12.816Z,100943.55
2017-09-30T02:53:21.125Z,100939.02
2017-09-30T02:54:28.958Z,100937.01
2017-09-30T02:55:38.679Z,100935.57
2017-09-30T02:56:47.379Z,100937.58
2017-09-30T02:57:55.035Z,100932.28
2017-09-30T02:59:01.964Z,100936.15
2017-09-30T03:00:09.623Z,100936.89
2017-09-30T03:01:16.240Z,100930.38
2017-09-30T03:02:24.828Z,100931.00
2017-09-30T03:03:32.106Z,100926.13
2017-09-30T03:04:39.817Z,100927.59
2017-09-30T03:05:47.896Z,100927.20
2017-09-30T03:06:55.337Z,100931.73
2017-09-30T03:08:03.000Z,100921.98
2017-09-30T03:09:14.014Z,100917.48
2017-09-30T03:10:21.481Z,100926.70
2017-09-30T03:11:28.846Z,100924.08
2017-09-30T03:12:36.670Z,100923.19
2017-09-30T03:13:46.117Z,100918.53
2017-09-30T03:14:54.708Z,100913.91
2017-09-30T03:16:03.101Z,100909.02
2017-09-30T03:17:10.276Z,100907.70
2017-09-30T03:18:19.727Z,100912.97
2017-09-30T03:19:27.376Z,100909.02
2017-09-30T03:20:34.694Z,100908.56
2017-09-30T03:21:41.560Z,100908.08
2017-09-30T03:22:51.246Z,100907.86
2017-09-30T03:23:58.886Z,100904.52
2017-09-30T03:25:07.378Z,100907.10
2017-09-30T03:26:15.097Z,100910.52
2017-09-30T03:27:23.728Z,100906.41
2017-09-30T03:28:30.777Z,100912.56
2017-09-30T03:29:38.703Z,100911.85
2017-09-30T03:30:46.181Z,100908.23
2017-09-30T03:31:54.080Z,100910.09
2017-09-30T03:33:02.824Z,100908.15
2017-09-30T03:34:11.245Z,100906.32
2017-09-30T03:35:20.580Z,100902.05
2017-09-30T03:36:28.295Z,100904.23
2017-09-30T03:37:36.201Z,100905.28
2017-09-30T03:38:43.511Z,100900.41
2017-09-30T03:39:51.370Z,100903.47
2017-09-30T03:41:01.026Z,100904.97
2017-09-30T03:42:09.200Z,100906.09
2017-09-30T03:43:18.251Z,100904.19
2017-09-30T03:44:28.711Z,100903.55
2017-09-30T03:45:37.920Z,100903.06
2017-09-30T03:46:46.095Z,100896.19
2017-09-30T03:47:53.816Z,100895.08
2017-09-30T03:49:02.967Z,100894.56
2017-09-30T03:50:13.049Z,100892.20
2017-09-30T03:51:20.441Z,100896.11
2017-09-30T03:52:29.081Z,100894.38
2017-09-30T03:53:39.322Z,100891.95
2017-09-30T03:54:47.065Z,100893.33
2017-09-30T03:55:54.867Z,100892.22
2017-09-30T03:57:09.168Z,100896.52
2017-09-30T03:58:16.836Z,100888.66
2017-09-30T03:59:24.887Z,100896.05
2017-09-30T04:00:33.146Z,100895.02
2017-09-30T04:01:42.127Z,100893.86
2017-09-30T04:02:49.822Z,100896.59
2017-09-30T04:04:01.391Z,100895.40
2017-09-30T04:05:10.594Z,100895.17
2017-09-30T04:06:23.632Z,100893.95
2017-09-30T04:07:32.089Z,100892.95
2017-09-30T04:08:40.144Z,100895.14
2017-09-30T04:09:48.718Z,100890.14
2017-09-30T04:10:56.816Z,100895.32
2017-09-30T04:12:04.427Z,100889.43
2017-09-30T04:13:12.430Z,100891.84
2017-09-30T04:14:19.799Z,100889.84
2017-09-30T04:15:28.187Z,100889.54
2017-09-30T04:16:36.396Z,100890.59
2017-09-30T04:17:45.440Z,100886.78
2017-09-30T04:18:52.982Z,100886.33
2017-09-30T04:20:01.120Z,100886.05
2017-09-30T04:21:08.452Z,100881.81
2017-09-30T04:22:16.256Z,100885.94
2017-09-30T04:23:24.564Z,100885.16
2017-09-30T04:24:31.666Z,100884.05
2017-09-30T04:25:42.488Z,100882.77
2017-09-30T04:26:53.380Z,100881.79
2017-09-30T04:28:00.597Z,100882.24
2017-09-30T04:29:08.704Z,100877.38
2017-09-30T04:30:18.082Z,100878.27
2017-09-30T04:31:25.265Z,100878.08
2017-09-30T04:32:33.656Z,100874.03
2017-09-30T04:33:41.800Z,100878.36
2017-09-30T04:34:50.533Z,100877.06
2017-09-30T04:35:58.231Z,100878.64
2017-09-30T04:37:05.858Z,100874.11
2017-09-30T04:38:13.619Z,100875.77
2017-09-30T04:39:21.789Z,100875.14
2017-09-30T04:40:29.034Z,100872.37
2017-09-30T04:41:37.544Z,100873.73
2017-09-30T04:42:44.866Z,100872.69
2017-09-30T04:43:52.761Z,100878.22
2017-09-30T04:44:59.956Z,100875.91
2017-09-30T04:46:06.041Z,100875.16
2017-09-30T04:47:13.453Z,100874.78
2017-09-30T04:48:21.707Z,100869.08
2017-09-30T04:49:28.209Z,100873.83
2017-09-30T04:50:35.982Z,100871.11
2017-09-30T04:51:42.135Z,100871.66
2017-09-30T04:52:48.345Z,100871.25
2017-09-30T04:53:54.747Z,100867.48
2017-09-30T04:55:02.151Z,100873.42
2017-09-30T04:56:09.343Z,100871.47
2017-09-30T04:57:15.565Z,100861.13
2017-09-30T04:58:21.770Z,100865.55
2017-09-30T04:59:28.635Z,100862.44
2017-09-30T05:00:36.583Z,100864.33
2017-09-30T05:01:42.720Z,100863.67
2017-09-30T05:02:51.003Z,100864.09
2017-09-30T05:03:56.927Z,100871.52
2017-09-30T05:05:04.004Z,100871.09
2017-09-30T05:06:10.298Z,100870.17
2017-09-30T05:07:16.511Z,100871.91
2017-09-30T05:08:23.362Z,100870.33
2017-09-30T05:09:31.845Z,100870.84
2017-09-30T05:10:38.500Z,100862.09
2017-09-30T05:11:44.869Z,100867.94
2017-09-30T05:12:52.063Z,100864.93
2017-09-30T05:13:58.662Z,100870.41
2017-09-30T05:15:05.890Z,100869.94
2017-09-30T05:16:13.031Z,100870.03
2017-09-30T05:17:19.809Z,100871.49
2017-09-30T05:18:26.960Z,100867.87
2017-09-30T05:19:33.652Z,100867.55
2017-09-30T05:20:39.920Z,100876.09
2017-09-30T05:21:47.947Z,100871.63
2017-09-30T05:22:54.888Z,100871.68
2017-09-30T05:24:02.785Z,100873.16
2017-09-30T05:25:09.953Z,100871.94
2017-09-30T05:26:21.475Z,100873.02
2017-09-30T05:27:28.982Z,100879.16
2017-09-30T05:28:37.373Z,100880.87
2017-09-30T05:29:45.048Z,100878.95
2017-09-30T05:30:54.603Z,100876.80
2017-09-30T05:32:02.896Z,100880.60
2017-09-30T05:33:11.136Z,100881.13
2017-09-30T05:34:17.384Z,100879.81
2017-09-30T05:35:24.213Z,100881.28
2017-09-30T05:36:33.673Z,100885.44
2017-09-30T05:37:39.903Z,100879.15
2017-09-30T05:38:46.121Z,100884.80
2017-09-30T05:39:56.914Z,100881.52
2017-09-30T05:41:03.536Z,100884.60
2017-09-30T05:42:09.655Z,100888.27
2017-09-30T05:43:16.235Z,100887.25
2017-09-30T05:44:23.161Z,100888.28
2017-09-30T05:45:30.945Z,100890.91
2017-09-30T05:46:37.668Z,100892.39
2017-09-30T05:47:44.687Z,100889.97
2017-09-30T05:48:51.377Z,100893.87
2017-09-30T05:49:57.823Z,100893.58
2017-09-30T05:51:05.305Z,100891.88
2017-09-30T05:52:14.121Z,100893.72
2017-09-30T05:53:20.252Z,100902.09
2017-09-30T05:54:26.488Z,100900.94
2017-09-30T05:55:33.033Z,100900.86
2017-09-30T05:56:40.306Z,100905.04
2017-09-30T05:57:47.075Z,100895.48
2017-09-30T05:58:53.344Z,100900.28
2017-09-30T05:59:59.458Z,100894.96
2017-09-30T06:01:06.858Z,100897.20
2017-09-30T06:02:13.713Z,100899.38
2017-09-30T06:03:20.069Z,100890.87
2017-09-30T06:04:27.009Z,100890.00
2017-09-30T06:05:36.253Z,100885.00
2017-09-30T06:06:43.698Z,100896.97
2017-09-30T06:07:53.744Z,100890.72
2017-09-30T06:09:00.547Z,100892.78
2017-09-30T06:10:06.960Z,100890.48
2017-09-30T06:11:13.626Z,100893.20
2017-09-30T06:12:21.017Z,100887.27
2017-09-30T06:13:29.920Z,100890.70
2017-09-30T06:14:37.487Z,100887.70
2017-09-30T06:15:44.874Z,100886.23
2017-09-30T06:16:50.974Z,100888.96
2017-09-30T06:17:57.224Z,100887.89
2017-09-30T06:19:04.524Z,100885.74
2017-09-30T06:20:11.341Z,100885.64
2017-09-30T06:21:18.140Z,100876.90
2017-09-30T06:22:24.358Z,100880.67
2017-09-30T06:23:30.789Z,100885.52
2017-09-30T06:24:39.124Z,100883.77
2017-09-30T06:25:46.602Z,100879.94
2017-09-30T06:26:53.799Z,100881.13
2017-09-30T06:28:00.105Z,100881.83
2017-09-30T06:29:05.938Z,100882.83
2017-09-30T06:30:13.103Z,100883.98
2017-09-30T06:31:19.327Z,100881.42
2017-09-30T06:32:25.682Z,100877.17
2017-09-30T06:33:32.667Z,100880.54
2017-09-30T06:34:38.864Z,100876.09
2017-09-30T06:35:45.955Z,100871.86
2017-09-30T06:36:52.280Z,100873.88
2017-09-30T06:37:59.309Z,100875.98
2017-09-30T06:39:05.099Z,100872.34
2017-09-30T06:40:11.248Z,100875.22
2017-09-30T06:41:18.308Z,100871.92
2017-09-30T06:42:25.540Z,100871.75
2017-09-30T06:43:31.835Z,100868.95
2017-09-30T06:44:38.142Z,100864.82
2017-09-30T06:45:44.336Z,100871.36
2017-09-30T06:46:52.037Z,100867.39
2017-09-30T06:48:00.052Z,100869.28
2017-09-30T06:49:07.677Z,100868.31
2017-09-30T06:50:14.038Z,100865.83
2017-09-30T06:51:20.296Z,100871.41
2017-09-30T06:52:26.515Z,100864.45
2017-09-30T06:53:32.783Z,100867.91
2017-09-30T06:54:39.746Z,100863.42
2017-09-30T06:55:48.101Z,100864.69
2017-09-30T06:56:54.268Z,100856.94
2017-09-30T06:58:01.640Z,100860.02
2017-09-30T06:59:07.785Z,100859.84
2017-09-30T07:00:14.394Z,100855.66
2017-09-30T07:01:21.392Z,100855.34
2017-09-30T07:02:27.544Z,100858.52
2017-09-30T07:03:33.878Z,100855.69
2017-09-30T07:04:40.503Z,100858.95
2017-09-30T07:05:46.656Z,100859.95
2017-09-30T07:06:52.923Z,100858.84
2017-09-30T07:07:59.269Z,100848.72
2017-09-30T07:09:04.771Z,100852.83
2017-09-30T07:10:11.012Z,100852.94
2017-09-30T07:11:17.187Z,100854.19
2017-09-30T07:12:23.407Z,100849.22
2017-09-30T07:13:29.614Z,100851.55
2017-09-30T07:14:37.369Z,100854.19
2017-09-30T07:15:43.570Z,100848.36
2017-09-30T07:16:50.209Z,100852.19
2017-09-30T07:17:56.732Z,100852.89
2017-09-30T07:19:03.065Z,100854.28
2017-09-30T07:20:09.991Z,100853.34
2017-09-30T07:21:16.173Z,100856.20
2017-09-30T07:22:22.386Z,100854.73
2017-09-30T07:23:28.560Z,100859.05
2017-09-30T07:24:34.864Z,100859.95
2017-09-30T07:25:41.037Z,100856.86
2017-09-30T07:26:47.405Z,100855.06
2017-09-30T07:27:53.604Z,100855.36
2017-09-30T07:29:00.164Z,100854.98
2017-09-30T07:30:06.984Z,100853.92
2017-09-30T07:31:14.767Z,100848.44
2017-09-30T07:32:20.901Z,100847.08
2017-09-30T07:33:27.108Z,100847.35
2017-09-30T07:34:33.439Z,100849.49
2017-09-30T07:35:39.552Z,100846.69
2017-09-30T07:36:46.412Z,100846.14
2017-09-30T07:37:53.367Z,100852.95
2017-09-30T07:38:59.822Z,100849.22
2017-09-30T07:40:06.136Z,100851.73
2017-09-30T07:41:12.378Z,100855.09
2017-09-30T07:42:18.657Z,100854.93
2017-09-30T07:43:25.078Z,100851.61
2017-09-30T07:44:32.747Z,100848.97
2017-09-30T07:45:41.101Z,100846.28
2017-09-30T07:46:48.972Z,100849.55
2017-09-30T07:47:55.303Z,100849.31
2017-09-30T07:49:01.461Z,100844.05
2017-09-30T07:50:08.172Z,100841.52
2017-09-30T07:51:14.445Z,100845.72
2017-09-30T07:52:20.833Z,100844.44
2017-09-30T07:53:26.978Z,100844.28
2017-09-30T07:54:33.930Z,100841.88
2017-09-30T07:55:40.819Z,100841.32
2017-09-30T07:56:47.098Z,100836.95
2017-09-30T07:57:53.546Z,100839.64
2017-09-30T07:58:59.908Z,100840.30
2017-09-30T08:00:06.103Z,100835.91
2017-09-30T08:01:14.170Z,100836.23
2017-09-30T08:02:20.483Z,100834.37
2017-09-30T08:03:30.150Z,100835.83
2017-09-30T08:04:36.393Z,100839.38
2017-09-30T08:05:42.573Z,100834.77
2017-09-30T08:06:48.751Z,100833.95
2017-09-30T08:07:54.959Z,100838.74
2017-09-30T08:09:01.221Z,100833.86
2017-09-30T08:10:07.842Z,100835.47
2017-09-30T08:11:14.052Z,100829.08
2017-09-30T08:12:20.205Z,100829.92
2017-09-30T08:13:26.419Z,100827.30
2017-09-30T08:14:33.480Z,100828.57
2017-09-30T08:15:39.914Z,100827.98
2017-09-30T08:16:46.915Z,100827.23
2017-09-30T08:17:53.443Z,100833.28
2017-09-30T08:18:59.700Z,100828.36
2017-09-30T08:20:05.812Z,100825.80
2017-09-30T08:21:12.724Z,100829.13
2017-09-30T08:22:19.010Z,100835.05
2017-09-30T08:23:25.156Z,100827.70
2017-09-30T08:24:31.280Z,100835.95
2017-09-30T08:25:38.175Z,100825.08
2017-09-30T08:26:45.284Z,100830.12
2017-09-30T08:27:53.140Z,100831.25
2017-09-30T08:29:02.581Z,100830.44
2017-09-30T08:30:08.684Z,100824.78
2017-09-30T08:31:15.442Z,100827.22
2017-09-30T08:32:21.857Z,100830.30
2017-09-30T08:33:28.272Z,100826.45
2017-09-30T08:34:34.547Z,100823.02
2017-09-30T08:35:40.763Z,100819.73
2017-09-30T08:36:47.208Z,100819.91
2017-09-30T08:37:53.749Z,100815.23
2017-09-30T08:39:01.201Z,100818.98
2017-09-30T08:40:06.976Z,100817.89
2017-09-30T08:41:13.652Z,100815.98
2017-09-30T08:42:19.544Z,100814.48
2017-09-30T08:43:25.743Z,100822.86
2017-09-30T08:44:32.948Z,100819.86
2017-09-30T08:45:40.964Z,100819.91
2017-09-30T08:46:47.298Z,100820.08
2017-09-30T08:47:53.445Z,100822.26
2017-09-30T08:49:00.251Z,100818.62
2017-09-30T08:50:06.921Z,100816.98
2017-09-30T08:51:13.369Z,100819.91
2017-09-30T08:52:21.203Z,100818.44
2017-09-30T08:53:28.439Z,100815.38
2017-09-30T08:54:34.413Z,100819.53
2017-09-30T08:55:39.800Z,100818.89
2017-09-30T08:56:45.958Z,100817.52
2017-09-30T08:57:52.493Z,100813.67
2017-09-30T08:58:59.440Z,100812.47
2017-09-30T09:00:05.635Z,100813.00
2017-09-30T09:01:11.730Z,100811.55
2017-09-30T09:02:18.418Z,100807.09
2017-09-30T09:03:25.345Z,100807.78
2017-09-30T09:04:32.075Z,100805.63
2017-09-30T09:05:40.202Z,100804.30
2017-09-30T09:06:46.526Z,100803.48
2017-09-30T09:07:52.699Z,100804.87
2017-09-30T09:08:59.068Z,100804.30
2017-09-30T09:10:05.207Z,100798.98
2017-09-30T09:11:12.771Z,100801.00
2017-09-30T09:12:19.096Z,100803.11
2017-09-30T09:13:26.203Z,100798.92
2017-09-30T09:14:32.558Z,100792.96
2017-09-30T09:15:39.796Z,100797.62
2017-09-30T09:16:46.907Z,100791.43
2017-09-30T09:17:54.261Z,100792.27
2017-09-30T09:19:00.418Z,100797.88
2017-09-30T09:20:06.624Z,100793.13
2017-09-30T09:21:12.970Z,100793.52
2017-09-30T09:22:19.287Z,100792.25
2017-09-30T09:23:25.714Z,100790.29
2017-09-30T09:24:33.357Z,100791.98
2017-09-30T09:25:40.183Z,100786.97
2017-09-30T09:26:46.438Z,100786.95
2017-09-30T09:27:52.668Z,100781.77
2017-09-30T09:28:59.762Z,100779.69
2017-09-30T09:30:06.699Z,100781.98
2017-09-30T09:31:13.079Z,100784.39
2017-09-30T09:32:19.674Z,100777.20
2017-09-30T09:33:26.068Z,100777.83
2017-09-30T09:34:33.216Z,100775.14
2017-09-30T09:35:39.544Z,100777.23
2017-09-30T09:36:45.705Z,100776.14
2017-09-30T09:37:52.160Z,100769.46
2017-09-30T09:38:58.532Z,100772.86
2017-09-30T09:40:04.517Z,100760.80
2017-09-30T09:41:10.675Z,100766.98
2017-09-30T09:42:16.850Z,100765.53
2017-09-30T09:43:23.160Z,100768.23
2017-09-30T09:44:30.616Z,100756.44
2017-09-30T09:45:36.811Z,100759.16
2017-09-30T09:46:43.683Z,100757.57
2017-09-30T09:47:49.936Z,100761.19
2017-09-30T09:48:56.396Z,100760.09
2017-09-30T09:50:03.072Z,100758.20
2017-09-30T09:51:11.541Z,100757.00
2017-09-30T09:52:18.000Z,100756.05
2017-09-30T09:53:23.967Z,100755.34
2017-09-30T09:54:31.949Z,100755.06
2017-09-30T09:55:38.272Z,100751.63
2017-09-30T09:56:44.485Z,100749.16
2017-09-30T09:57:50.697Z,100743.24
2017-09-30T09:58:57.250Z,100750.34
2017-09-30T10:00:03.805Z,100740.70
2017-09-30T10:01:10.619Z,100736.31
2017-09-30T10:02:16.817Z,100739.13
2017-09-30T10:03:23.521Z,100739.66
2017-09-30T10:04:29.803Z,100736.27
2017-09-30T10:05:35.953Z,100733.77
2017-09-30T10:06:43.119Z,100737.12
2017-09-30T10:07:49.832Z,100733.89
2017-09-30T10:08:57.004Z,100734.84
2017-09-30T10:10:05.281Z,100731.27
2017-09-30T10:11:11.508Z,100735.08
2017-09-30T10:12:18.396Z,100727.89
2017-09-30T10:13:24.692Z,100722.94
2017-09-30T10:14:30.852Z,100730.47
2017-09-30T10:15:37.052Z,100720.59
2017-09-30T10:16:48.938Z,100715.92
2017-09-30T10:17:55.878Z,100716.99
2017-09-30T10:19:02.087Z,100720.53
2017-09-30T10:20:08.244Z,100715.95
2017-09-30T10:21:14.515Z,100716.70
2017-09-30T10:22:20.964Z,100712.70
2017-09-30T10:23:27.166Z,100712.48
2017-09-30T10:24:34.261Z,100706.66
2017-09-30T10:25:41.397Z,100710.17
2017-09-30T10:26:48.393Z,100710.83
2017-09-30T10:27:58.210Z,100711.10
2017-09-30T10:29:06.058Z,100707.50
2017-09-30T10:30:12.202Z,100706.34
2017-09-30T10:31:19.704Z,100702.14
2017-09-30T10:32:26.223Z,100695.06
2017-09-30T10:33:32.416Z,100703.88
2017-09-30T10:34:38.611Z,100704.29
2017-09-30T10:35:44.414Z,100700.53
2017-09-30T10:36:51.389Z,100699.08
2017-09-30T10:37:57.628Z,100707.67
2017-09-30T10:39:03.770Z,100701.32
2017-09-30T10:40:10.940Z,100699.84
2017-09-30T10:41:17.302Z,100700.92
2017-09-30T10:42:24.632Z,100701.53
2017-09-30T10:43:30.830Z,100698.92
2017-09-30T10:44:37.303Z,100699.06
2017-09-30T10:45:43.892Z,100693.64
2017-09-30T10:46:50.797Z,100690.86
2017-09-30T10:47:56.840Z,100690.69
2017-09-30T10:49:03.765Z,100695.28
2017-09-30T10:50:10.996Z,100692.39
2017-09-30T10:51:17.101Z,100688.22
2017-09-30T10:52:23.364Z,100692.11
2017-09-30T10:53:29.576Z,100690.14
2017-09-30T10:54:39.677Z,100695.44
2017-09-30T10:55:46.835Z,100688.88
2017-09-30T10:56:53.271Z,100689.55
2017-09-30T10:57:59.908Z,100683.38
2017-09-30T10:59:06.134Z,100682.32
2017-09-30T11:00:13.225Z,100684.30
2017-09-30T11:01:20.171Z,100684.18
2017-09-30T11:02:26.498Z,100680.40
2017-09-30T11:03:32.830Z,100671.92
2017-09-30T11:04:40.200Z,100674.14
2017-09-30T11:05:47.369Z,100674.63
2017-09-30T11:06:53.548Z,100669.69
2017-09-30T11:07:59.817Z,100670.14
2017-09-30T11:09:06.031Z,100672.38
2017-09-30T11:10:13.619Z,100666.47
2017-09-30T11:11:21.570Z,100669.28
2017-09-30T11:12:28.824Z,100679.27
2017-09-30T11:13:39.519Z,100672.91
2017-09-30T11:14:46.352Z,100664.66
2017-09-30T11:15:53.086Z,100668.80
2017-09-30T11:16:59.448Z,100667.84
2017-09-30T11:18:05.900Z,100664.39
2017-09-30T11:19:12.189Z,100664.72
2017-09-30T11:20:18.365Z,100659.98
2017-09-30T11:21:28.309Z,100661.81
2017-09-30T11:22:34.605Z,100664.73
2017-09-30T11:23:41.129Z,100659.59
2017-09-30T11:24:47.287Z,100662.04
2017-09-30T11:25:53.764Z,100659.33
2017-09-30T11:27:00.579Z,100662.05
2017-09-30T11:28:07.096Z,100665.27
2017-09-30T11:29:14.409Z,100662.58
2017-09-30T11:30:20.595Z,100658.16
2017-09-30T11:31:26.819Z,100657.94
2017-09-30T11:32:33.009Z,100660.81
2017-09-30T11:33:39.220Z,100651.85
2017-09-30T11:34:45.459Z,100645.78
2017-09-30T11:35:51.698Z,100651.02
2017-09-30T11:36:57.855Z,100645.68
2017-09-30T11:38:04.060Z,100646.95
2017-09-30T11:39:10.364Z,100642.99
2017-09-30T11:40:16.731Z,100639.16
2017-09-30T11:41:23.796Z,100642.45
2017-09-30T11:42:29.905Z,100634.30
2017-09-30T11:43:36.331Z,100629.50
2017-09-30T11:44:42.640Z,100627.72
2017-09-30T11:45:51.462Z,100632.38
2017-09-30T11:46:57.777Z,100632.75
2017-09-30T11:48:03.933Z,100626.02
2017-09-30T11:49:11.527Z,100623.97
2017-09-30T11:50:17.790Z,100628.05
2017-09-30T11:51:24.110Z,100623.72
2017-09-30T11:52:30.464Z,100622.86
2017-09-30T11:53:36.884Z,100619.89
2017-09-30T11:54:44.410Z,100619.30
2017-09-30T11:55:50.560Z,100620.47
2017-09-30T11:56:57.129Z,100616.72
2017-09-30T11:58:03.296Z,100613.45
2017-09-30T11:59:09.566Z,100613.03
2017-09-30T12:00:16.139Z,100617.80
2017-09-30T12:01:22.249Z,100617.45
2017-09-30T12:02:28.464Z,100614.57
2017-09-30T12:03:34.655Z,100613.80
2017-09-30T12:04:42.108Z,100610.30
2017-09-30T12:05:48.289Z,100613.55
2017-09-30T12:06:55.095Z,100615.86
2017-09-30T12:08:02.839Z,100609.23
2017-09-30T12:09:08.974Z,100611.27
2017-09-30T12:10:15.303Z,100608.26
2017-09-30T12:11:21.551Z,100609.77
2017-09-30T12:12:27.877Z,100604.16
2017-09-30T12:13:34.111Z,100603.73
2017-09-30T12:14:41.221Z,100600.69
2017-09-30T12:15:48.088Z,100592.89
2017-09-30T12:16:55.337Z,100592.67
2017-09-30T12:18:01.685Z,100590.52
2017-09-30T12:19:07.888Z,100588.49
2017-09-30T12:20:14.049Z,100586.52
2017-09-30T12:21:21.335Z,100590.32
2017-09-30T12:22:28.260Z,100592.24
2017-09-30T12:23:34.582Z,100582.80
2017-09-30T12:24:40.771Z,100582.80
2017-09-30T12:25:46.908Z,100586.96
2017-09-30T12:26:53.137Z,100586.19
2017-09-30T12:27:59.355Z,100586.47
2017-09-30T12:29:05.718Z,100582.19
2017-09-30T12:30:12.351Z,100581.48
2017-09-30T12:31:18.653Z,100577.70
2017-09-30T12:32:24.839Z,100580.09
2017-09-30T12:33:31.279Z,100578.21
2017-09-30T12:34:37.686Z,100574.62
2017-09-30T12:35:44.102Z,100577.36
2017-09-30T12:36:50.339Z,100576.69
2017-09-30T12:37:56.460Z,100575.99
2017-09-30T12:39:02.843Z,100573.80
2017-09-30T12:40:10.986Z,100572.83
2017-09-30T12:41:17.249Z,100579.03
2017-09-30T12:42:23.454Z,100576.51
2017-09-30T12:43:31.909Z,100575.30
2017-09-30T12:44:38.894Z,100574.78
2017-09-30T12:45:45.052Z,100576.75
2017-09-30T12:46:51.418Z,100575.48
2017-09-30T12:47:58.342Z,100569.01